Pickstown, South Dakota
Current Conditions -  °F | °C
As of 8:15 AM on Monday 26 Jan 2015 (Local Time) from KONL Reporting Station
Clear Clear  
Wind Chill: 36°   Ceiling: Unl
Heat Index: 43°   Visibility: 10mi
Dew Point: 35°   Wind: 12mph
Humidity: 74%   Direction: 310°NW
Pressure: 29.92"   Gusts: NA
Location:  43.07°N, 98.53°W
Report Text: KONL 261415Z AUTO 31010KT 10SM CLR 06/02 A2992 RMK AO2 T00590016
Loading
Personal Weather Stations






























Interactive Weather Map New forecast layout! Learn more

10-Day Weather Forecast

Advertisements
Track Severe Weather on mobile